This is the latest recevied weather packets stored in our database for station/object K1RFS. If no packets are shown the sender has not sent any weather packets the latest 10 day(s).
| Time | Temp. | Humidity | Pressure | Rain* | Wind** | Luminosity | Snow |
|---|---|---|---|---|---|---|---|
| 1778027271 | 16.11° C | 44% | 994.6 hPa | 0 mm | - | 203 W/m² | - |
| 1778026967 | 16.67° C | 43% | 994.9 hPa | 0 mm | - | 213 W/m² | - |
| 1778026663 | 16.67° C | 43% | 994.6 hPa | 0 mm | - | 223 W/m² | - |
| 1778026361 | 16.67° C | 44% | 994.6 hPa | 0 mm | - | 237 W/m² | - |
| 1778026058 | 16.11° C | 44% | 994.9 hPa | 0 mm | - | 247 W/m² | - |
| 1778025755 | 16.11° C | 43% | 994.8 hPa | 0 mm | - | 259 W/m² | - |
| 1778025452 | 16.67° C | 44% | 994.5 hPa | 0 mm | - | 270 W/m² | - |
| 1778025150 | 16.67° C | 42% | 994.9 hPa | 0 mm | - | 280 W/m² | - |
| 1778024846 | 16.67° C | 43% | 994.9 hPa | 0 mm | - | 293 W/m² | - |
| 1778024544 | 16.67° C | 44% | 994.8 hPa | 0 mm | - | 306 W/m² | - |
| 1778024240 | 16.67° C | 44% | 994.8 hPa | 0 mm | - | 316 W/m² | - |
| 1778023938 | 16.67° C | 43% | 994.9 hPa | 0 mm | - | 344 W/m² | - |
| 1778023635 | 16.11° C | 43% | 995 hPa | 0 mm | - | 371 W/m² | - |
| 1778023333 | 17.78° C | 42% | 995.1 hPa | 0 mm | - | 377 W/m² | - |
| 1778023029 | 17.22° C | 42% | 994.9 hPa | 0 mm | - | 380 W/m² | - |
| 1778022728 | 16.67° C | 43% | 995.1 hPa | 0 mm | - | 396 W/m² | - |
| 1778022426 | 16.11° C | 46% | 995.2 hPa | 0 mm | - | 445 W/m² | - |
| 1778022122 | 15.56° C | 47% | 995.1 hPa | 0 mm | - | 438 W/m² | - |
| 1778021819 | 15.56° C | 48% | 995.1 hPa | 0 mm | - | 515 W/m² | - |
| 1778021515 | 15° C | 51% | 995.3 hPa | 0 mm | - | 169 W/m² | - |
| 1778021211 | 15° C | 51% | 995.3 hPa | 0 mm | - | 184 W/m² | - |
| 1778020909 | 13.89° C | 53% | 995.3 hPa | 0 mm | - | 236 W/m² | - |
| 1778020606 | 13.33° C | 57% | 995.4 hPa | 0 mm | - | 425 W/m² | - |
| 1778020302 | 12.78° C | 57% | 995.4 hPa | 0 mm | - | 248 W/m² | - |
| 1778019998 | 12.22° C | 59% | 995.7 hPa | 0 mm | - | 213 W/m² | - |
* Rain latest hour (hover to see other rain measurements)
** Current wind speed in m/s (hover to see current wind gust speed)